createdAt,value
2019-03-29T00:00:55.698Z,7.50
2019-03-29T00:03:24.945Z,7.80
2019-03-29T00:05:54.262Z,6.90
2019-03-29T00:08:23.698Z,7.70
2019-03-29T00:10:53.010Z,8.60
2019-03-29T00:13:23.028Z,7.93
2019-03-29T00:15:52.614Z,7.73
2019-03-29T00:18:21.911Z,6.63
2019-03-29T00:20:51.553Z,7.90
2019-03-29T00:23:20.868Z,7.40
2019-03-29T00:25:51.896Z,8.67
2019-03-29T00:28:21.123Z,6.43
2019-03-29T00:30:50.472Z,6.00
2019-03-29T00:33:19.690Z,6.80
2019-03-29T00:35:49.057Z,6.20
2019-03-29T00:38:18.272Z,6.03
2019-03-29T00:40:48.759Z,6.63
2019-03-29T00:43:17.969Z,6.13
2019-03-29T00:45:47.194Z,9.70
2019-03-29T00:48:16.419Z,4.77
2019-03-29T00:50:45.974Z,4.73
2019-03-29T00:53:15.294Z,6.27
2019-03-29T00:55:44.706Z,7.43
2019-03-29T00:58:15.722Z,5.50
2019-03-29T01:00:45.933Z,4.80
2019-03-29T01:03:15.269Z,5.77
2019-03-29T01:05:44.486Z,5.93
2019-03-29T01:08:13.913Z,4.57
2019-03-29T01:10:43.637Z,6.13
2019-03-29T01:13:13.145Z,4.77
2019-03-29T01:15:42.376Z,8.17
2019-03-29T01:18:11.958Z,5.83
2019-03-29T01:20:41.594Z,4.90
2019-03-29T01:23:12.427Z,4.27
2019-03-29T01:25:41.654Z,4.67
2019-03-29T01:28:11.965Z,5.30
2019-03-29T01:30:41.464Z,4.07
2019-03-29T01:33:10.711Z,3.97
2019-03-29T01:35:39.926Z,3.63
2019-03-29T01:38:21.209Z,3.43
2019-03-29T01:40:40.817Z,4.70
2019-03-29T01:43:10.333Z,6.37
2019-03-29T01:45:39.770Z,4.70
2019-03-29T01:48:10.079Z,3.57
2019-03-29T01:50:39.460Z,3.20
2019-03-29T01:53:08.676Z,3.60
2019-03-29T01:55:37.914Z,5.37
2019-03-29T01:58:07.136Z,3.90
2019-03-29T02:00:36.594Z,3.07
2019-03-29T02:03:05.888Z,4.10
2019-03-29T02:05:36.903Z,4.03
2019-03-29T02:08:07.832Z,3.80
2019-03-29T02:10:37.210Z,4.33
2019-03-29T02:13:06.823Z,3.97
2019-03-29T02:15:37.945Z,3.30
2019-03-29T02:18:07.558Z,3.27
2019-03-29T02:20:36.956Z,4.27
2019-03-29T02:23:06.198Z,3.97
2019-03-29T02:25:37.212Z,3.90
2019-03-29T02:28:06.439Z,3.70
2019-03-29T02:30:35.709Z,4.30
2019-03-29T02:33:05.048Z,3.90
2019-03-29T02:35:35.571Z,3.37
2019-03-29T02:38:04.854Z,4.20
2019-03-29T02:40:34.181Z,3.30
2019-03-29T02:43:05.212Z,3.67
2019-03-29T02:45:36.236Z,4.17
2019-03-29T02:48:05.550Z,3.60
2019-03-29T02:50:36.646Z,4.57
2019-03-29T02:53:06.200Z,3.77
2019-03-29T02:55:35.449Z,3.33
2019-03-29T02:58:04.748Z,3.67
2019-03-29T03:00:35.881Z,3.80
2019-03-29T03:03:05.209Z,4.63
2019-03-29T03:05:34.523Z,3.10
2019-03-29T03:08:03.947Z,4.23
2019-03-29T03:10:33.317Z,3.40
2019-03-29T03:13:02.582Z,4.30
2019-03-29T03:15:31.892Z,3.90
2019-03-29T03:18:02.023Z,5.67
2019-03-29T03:20:31.276Z,3.70
2019-03-29T03:23:00.675Z,4.23
2019-03-29T03:25:30.008Z,3.80
2019-03-29T03:27:59.323Z,4.37
2019-03-29T03:30:30.442Z,4.27
2019-03-29T03:32:59.679Z,4.73
2019-03-29T03:35:30.391Z,2.90
2019-03-29T03:37:59.654Z,4.17
2019-03-29T03:40:29.455Z,3.90
2019-03-29T03:42:58.684Z,4.00
2019-03-29T03:45:27.898Z,4.27
2019-03-29T03:47:57.140Z,3.87
2019-03-29T03:50:40.184Z,4.87
2019-03-29T03:53:11.466Z,4.30
2019-03-29T03:55:42.691Z,4.77
2019-03-29T03:58:12.630Z,4.20
2019-03-29T04:00:53.419Z,4.70
2019-03-29T04:03:23.372Z,4.07
2019-03-29T04:05:52.925Z,4.00
2019-03-29T04:08:22.238Z,4.30
2019-03-29T04:10:51.665Z,4.37
2019-03-29T04:13:21.072Z,5.30
2019-03-29T04:15:50.999Z,4.90
2019-03-29T04:18:20.501Z,4.53
2019-03-29T04:20:49.813Z,5.00
2019-03-29T04:23:19.417Z,7.10
2019-03-29T04:25:48.997Z,4.67
2019-03-29T04:28:19.018Z,4.37
2019-03-29T04:30:48.388Z,5.67
2019-03-29T04:33:19.631Z,4.70
2019-03-29T04:35:50.094Z,6.23
2019-03-29T04:38:19.684Z,6.83
2019-03-29T04:40:49.365Z,5.63
2019-03-29T04:43:18.807Z,6.07
2019-03-29T04:45:49.835Z,5.20
2019-03-29T04:48:19.187Z,5.30
2019-03-29T04:50:48.549Z,5.70
2019-03-29T04:53:17.830Z,7.83
2019-03-29T04:55:47.030Z,6.10
2019-03-29T04:58:16.357Z,5.60
2019-03-29T05:00:47.520Z,6.20
2019-03-29T05:03:16.821Z,6.03
2019-03-29T05:05:46.801Z,4.90
2019-03-29T05:08:16.331Z,6.00
2019-03-29T05:10:45.655Z,7.50
2019-03-29T05:13:16.694Z,5.37
2019-03-29T05:15:45.934Z,6.33
2019-03-29T05:18:15.243Z,6.40
2019-03-29T05:20:44.500Z,5.60
2019-03-29T05:23:13.810Z,6.80
2019-03-29T05:25:43.052Z,8.23
2019-03-29T05:28:12.580Z,7.40
2019-03-29T05:30:42.739Z,9.53
2019-03-29T05:33:12.102Z,6.83
2019-03-29T05:35:41.446Z,7.00
2019-03-29T05:38:10.867Z,7.53
2019-03-29T05:40:40.239Z,8.50
2019-03-29T05:43:11.270Z,10.97
2019-03-29T05:45:40.467Z,8.57
2019-03-29T05:48:09.867Z,8.60
2019-03-29T05:50:40.812Z,8.07
2019-03-29T05:53:10.535Z,8.93
2019-03-29T05:55:40.512Z,7.77
2019-03-29T05:58:10.225Z,8.27
2019-03-29T06:00:39.699Z,6.70
2019-03-29T06:03:10.187Z,6.90
2019-03-29T06:05:39.670Z,7.67
2019-03-29T06:08:10.191Z,7.53
2019-03-29T06:10:48.732Z,7.83
2019-03-29T06:13:10.614Z,6.60
2019-03-29T06:15:39.973Z,9.17
2019-03-29T06:18:09.176Z,7.03
2019-03-29T06:20:38.555Z,8.20
2019-03-29T06:23:08.671Z,8.53
2019-03-29T06:25:38.001Z,6.47
2019-03-29T06:28:07.616Z,6.60
2019-03-29T06:30:36.869Z,6.10
2019-03-29T06:33:06.104Z,6.73
2019-03-29T06:35:39.499Z,8.13
2019-03-29T06:38:09.578Z,6.33
2019-03-29T06:40:38.942Z,7.47
2019-03-29T06:43:08.330Z,8.63
2019-03-29T06:45:47.690Z,8.00
2019-03-29T06:48:08.815Z,6.43
2019-03-29T06:50:41.070Z,7.50
2019-03-29T06:53:10.438Z,6.80
2019-03-29T06:55:39.660Z,7.23
2019-03-29T06:58:08.885Z,7.70
2019-03-29T07:00:38.183Z,6.83
2019-03-29T07:03:07.552Z,8.00
2019-03-29T07:05:37.703Z,6.93
2019-03-29T07:08:07.009Z,11.70
2019-03-29T07:10:36.326Z,7.73
2019-03-29T07:13:06.545Z,7.77
2019-03-29T07:15:35.787Z,7.63
2019-03-29T07:18:05.105Z,7.83
2019-03-29T07:20:36.087Z,8.30
2019-03-29T07:23:07.950Z,8.30
2019-03-29T07:25:37.287Z,7.73
2019-03-29T07:28:07.213Z,9.30
2019-03-29T07:30:36.558Z,9.00
2019-03-29T07:33:05.881Z,9.10
2019-03-29T07:35:35.088Z,9.53
2019-03-29T07:38:04.520Z,9.13
2019-03-29T07:40:34.029Z,7.80
2019-03-29T07:43:03.339Z,8.23
2019-03-29T07:45:32.685Z,9.37
2019-03-29T07:48:01.915Z,7.53
2019-03-29T07:50:31.298Z,9.20
2019-03-29T07:53:02.240Z,8.13
2019-03-29T07:55:31.474Z,7.87
2019-03-29T07:58:01.004Z,7.50
2019-03-29T08:00:30.421Z,8.20
2019-03-29T08:02:59.792Z,7.33
2019-03-29T08:05:29.287Z,8.40
2019-03-29T08:07:59.896Z,7.87
2019-03-29T08:10:31.417Z,10.60
2019-03-29T08:13:00.748Z,9.10
2019-03-29T08:15:30.158Z,10.33
2019-03-29T08:18:01.574Z,7.90
2019-03-29T08:20:43.600Z,9.67
2019-03-29T08:23:03.400Z,7.83
2019-03-29T08:25:32.729Z,8.00
2019-03-29T08:28:02.058Z,12.33
2019-03-29T08:30:32.021Z,9.27
2019-03-29T08:33:02.953Z,10.20
2019-03-29T08:35:32.285Z,10.20
2019-03-29T08:38:01.500Z,8.37
2019-03-29T08:40:30.763Z,9.10
2019-03-29T08:42:59.982Z,6.90
2019-03-29T08:45:31.017Z,8.37
2019-03-29T08:48:02.175Z,7.70
2019-03-29T08:50:31.391Z,7.70
2019-03-29T08:53:03.729Z,8.63
2019-03-29T08:55:44.944Z,6.77
2019-03-29T08:58:04.475Z,8.10
2019-03-29T09:00:34.141Z,7.33
2019-03-29T09:03:04.213Z,7.80
2019-03-29T09:05:35.295Z,9.50
2019-03-29T09:08:06.505Z,9.07
2019-03-29T09:10:36.007Z,6.80
2019-03-29T09:13:05.331Z,8.00
2019-03-29T09:15:34.723Z,8.27
2019-03-29T09:18:04.059Z,8.70
2019-03-29T09:20:34.871Z,7.50
2019-03-29T09:23:05.803Z,8.37
2019-03-29T09:25:35.323Z,9.10
2019-03-29T09:28:04.865Z,7.90
2019-03-29T09:30:35.907Z,7.60
2019-03-29T09:33:05.347Z,7.57
2019-03-29T09:35:34.585Z,8.80
2019-03-29T09:38:04.627Z,8.53
2019-03-29T09:40:34.283Z,9.77
2019-03-29T09:43:07.965Z,7.50
2019-03-29T09:45:34.781Z,7.97
2019-03-29T09:48:04.045Z,8.57
2019-03-29T09:50:33.864Z,8.93
2019-03-29T09:53:05.725Z,8.87
2019-03-29T09:55:35.040Z,8.80
2019-03-29T09:58:04.367Z,8.70
2019-03-29T10:00:33.664Z,8.30
2019-03-29T10:03:03.022Z,8.63
2019-03-29T10:05:32.227Z,9.33
2019-03-29T10:08:02.113Z,8.80
2019-03-29T10:10:34.681Z,8.47
2019-03-29T10:13:04.362Z,8.47
2019-03-29T10:15:33.582Z,9.73
2019-03-29T10:18:02.913Z,8.57
2019-03-29T10:20:32.175Z,8.37
2019-03-29T10:23:01.700Z,9.13
2019-03-29T10:25:31.032Z,8.53
2019-03-29T10:28:00.369Z,8.43
2019-03-29T10:30:46.261Z,7.43
2019-03-29T10:33:14.233Z,9.70
2019-03-29T10:35:52.054Z,7.40
2019-03-29T10:38:18.029Z,9.67
2019-03-29T10:40:46.371Z,9.20
2019-03-29T10:43:15.694Z,9.00
2019-03-29T10:45:44.893Z,7.37
2019-03-29T10:48:14.326Z,8.23
2019-03-29T10:50:44.022Z,9.17
2019-03-29T10:53:13.352Z,7.90
2019-03-29T10:55:44.437Z,7.90
2019-03-29T10:58:13.686Z,9.60
2019-03-29T11:00:43.091Z,8.03
2019-03-29T11:03:12.411Z,7.67
2019-03-29T11:05:41.642Z,9.13
2019-03-29T11:08:12.668Z,8.50
2019-03-29T11:10:42.095Z,8.93
2019-03-29T11:13:13.953Z,9.40
2019-03-29T11:15:42.562Z,10.40
2019-03-29T11:18:12.119Z,10.50
2019-03-29T11:20:41.550Z,10.80
2019-03-29T11:23:10.863Z,10.13
2019-03-29T11:25:40.208Z,9.00
2019-03-29T11:28:09.439Z,8.73
2019-03-29T11:30:42.598Z,12.23
2019-03-29T11:33:10.060Z,10.13
2019-03-29T11:35:39.371Z,10.80
2019-03-29T11:38:08.595Z,9.40
2019-03-29T11:40:37.942Z,11.50
2019-03-29T11:43:07.458Z,9.60
2019-03-29T11:45:37.064Z,9.40
2019-03-29T11:48:09.265Z,9.87
2019-03-29T11:50:38.301Z,9.90
2019-03-29T11:53:07.622Z,10.00
2019-03-29T11:55:37.123Z,10.27
2019-03-29T11:58:06.543Z,10.30
2019-03-29T12:00:37.397Z,11.07
2019-03-29T12:03:09.149Z,11.13
2019-03-29T12:05:37.995Z,9.40
2019-03-29T12:08:07.581Z,8.87
2019-03-29T12:10:37.091Z,8.80
2019-03-29T12:13:08.375Z,9.63
2019-03-29T12:15:37.722Z,10.53
2019-03-29T12:18:07.328Z,9.30
2019-03-29T12:20:37.211Z,11.13
2019-03-29T12:23:06.571Z,10.43
2019-03-29T12:25:35.789Z,10.33
2019-03-29T12:28:06.432Z,9.77
2019-03-29T12:30:35.737Z,10.03
2019-03-29T12:33:04.965Z,11.83
2019-03-29T12:35:34.331Z,9.90
2019-03-29T12:38:03.755Z,9.10
2019-03-29T12:40:33.187Z,11.10
2019-03-29T12:43:02.881Z,9.57
2019-03-29T12:45:32.492Z,10.87
2019-03-29T12:48:01.903Z,10.33
2019-03-29T12:50:31.547Z,9.10
2019-03-29T12:53:00.872Z,10.43
2019-03-29T12:55:30.647Z,10.40
2019-03-29T12:58:00.279Z,10.97
2019-03-29T13:00:29.935Z,10.10
2019-03-29T13:02:59.153Z,9.53
2019-03-29T13:05:28.875Z,10.53
2019-03-29T13:07:58.135Z,9.87
2019-03-29T13:10:27.587Z,10.27
2019-03-29T13:13:00.217Z,10.47
2019-03-29T13:15:27.938Z,10.20
2019-03-29T13:17:57.353Z,9.93
2019-03-29T13:20:26.833Z,9.47
2019-03-29T13:22:56.145Z,9.20
2019-03-29T13:25:25.437Z,9.50
2019-03-29T13:27:58.960Z,10.10
2019-03-29T13:30:26.800Z,10.37
2019-03-29T13:32:56.031Z,10.60
2019-03-29T13:35:25.346Z,11.00
2019-03-29T13:37:54.589Z,10.20
2019-03-29T13:40:24.391Z,11.17
2019-03-29T13:42:53.621Z,10.60
2019-03-29T13:45:22.845Z,9.97
2019-03-29T13:47:52.154Z,10.77
2019-03-29T13:50:21.752Z,10.27
2019-03-29T13:52:51.431Z,11.03
2019-03-29T13:55:20.949Z,10.20
2019-03-29T13:57:50.716Z,11.23
2019-03-29T14:00:20.300Z,10.00
2019-03-29T14:02:49.663Z,10.13
2019-03-29T14:05:19.244Z,13.50
2019-03-29T14:07:48.894Z,8.67
2019-03-29T14:10:18.966Z,10.17
2019-03-29T14:12:48.359Z,9.80
2019-03-29T14:15:17.875Z,8.80
2019-03-29T14:17:47.325Z,9.20
2019-03-29T14:20:29.332Z,9.53
2019-03-29T14:23:00.778Z,10.20
2019-03-29T14:25:29.987Z,8.87
2019-03-29T14:27:59.308Z,10.20
2019-03-29T14:30:28.721Z,8.87
2019-03-29T14:32:57.968Z,9.90
2019-03-29T14:35:27.313Z,11.57
2019-03-29T14:37:56.760Z,11.90
2019-03-29T14:40:26.155Z,10.80
2019-03-29T14:42:55.480Z,11.33
2019-03-29T14:45:24.800Z,12.47
2019-03-29T14:47:54.010Z,9.67
2019-03-29T14:50:23.346Z,10.53
2019-03-29T14:52:52.651Z,11.40
2019-03-29T14:55:21.900Z,10.97
2019-03-29T14:57:51.246Z,8.83
2019-03-29T15:00:41.114Z,9.70
2019-03-29T15:03:10.704Z,9.30
2019-03-29T15:05:40.412Z,9.73
2019-03-29T15:08:09.688Z,9.40
2019-03-29T15:10:39.529Z,9.63
2019-03-29T15:13:09.082Z,10.33
2019-03-29T15:15:39.054Z,9.50
2019-03-29T15:18:08.906Z,9.20
2019-03-29T15:20:52.180Z,8.80
2019-03-29T15:23:10.436Z,8.73
2019-03-29T15:25:40.715Z,10.00
2019-03-29T15:28:10.552Z,9.37
2019-03-29T15:30:40.101Z,8.10
2019-03-29T15:33:09.559Z,8.80
2019-03-29T15:35:39.108Z,8.60
2019-03-29T15:38:09.542Z,10.53
2019-03-29T15:40:39.218Z,10.27
2019-03-29T15:43:09.029Z,7.53
2019-03-29T15:45:38.913Z,8.87
2019-03-29T15:48:10.992Z,8.43
2019-03-29T15:50:42.450Z,8.77
2019-03-29T15:53:12.433Z,10.60
2019-03-29T15:55:44.015Z,8.77
2019-03-29T15:58:17.806Z,9.67
2019-03-29T16:00:49.140Z,9.77
2019-03-29T16:03:23.103Z,8.53
2019-03-29T16:05:52.932Z,11.93
2019-03-29T16:08:22.491Z,10.67
2019-03-29T16:10:52.079Z,9.73
2019-03-29T16:13:21.393Z,9.47
2019-03-29T16:15:51.072Z,9.47
2019-03-29T16:18:20.512Z,11.10
2019-03-29T16:20:50.154Z,9.23
2019-03-29T16:23:19.938Z,10.00
2019-03-29T16:25:49.394Z,10.50
2019-03-29T16:28:19.082Z,9.80
2019-03-29T16:30:49.871Z,9.93
2019-03-29T16:33:20.319Z,10.97
2019-03-29T16:35:50.017Z,9.50
2019-03-29T16:38:19.237Z,11.47
2019-03-29T16:40:48.930Z,11.83
2019-03-29T16:43:18.838Z,9.57
2019-03-29T16:45:49.366Z,9.27
2019-03-29T16:48:19.073Z,9.43
2019-03-29T16:50:48.672Z,8.90
2019-03-29T16:53:18.486Z,8.90
2019-03-29T16:55:48.037Z,8.90
2019-03-29T16:58:17.640Z,9.50
2019-03-29T17:00:47.541Z,8.87
2019-03-29T17:03:17.161Z,7.60
2019-03-29T17:05:46.896Z,8.00
2019-03-29T17:08:16.516Z,8.63
2019-03-29T17:10:45.793Z,8.97
2019-03-29T17:13:15.559Z,10.43
2019-03-29T17:15:45.617Z,9.30
2019-03-29T17:18:28.517Z,9.27
2019-03-29T17:20:46.448Z,13.30
2019-03-29T17:23:16.457Z,10.37
2019-03-29T17:25:46.014Z,11.40
2019-03-29T17:28:15.387Z,9.77
2019-03-29T17:30:55.319Z,11.03
2019-03-29T17:33:24.960Z,9.97
2019-03-29T17:35:54.597Z,10.63
2019-03-29T17:38:25.755Z,9.00
2019-03-29T17:40:55.074Z,8.57
2019-03-29T17:43:25.604Z,6.77
2019-03-29T17:45:55.254Z,7.57
2019-03-29T17:48:24.480Z,7.10
2019-03-29T17:50:54.477Z,7.53
2019-03-29T17:53:24.654Z,9.37
2019-03-29T17:55:54.139Z,8.97
2019-03-29T17:58:25.132Z,7.33
2019-03-29T18:00:54.780Z,8.07
2019-03-29T18:03:25.320Z,8.60
2019-03-29T18:05:54.664Z,14.90
2019-03-29T18:08:24.282Z,9.60
2019-03-29T18:10:53.677Z,11.10
2019-03-29T18:13:23.418Z,15.17
2019-03-29T18:15:53.211Z,15.10
2019-03-29T18:18:22.601Z,18.40
2019-03-29T18:20:56.536Z,27.03
2019-03-29T18:23:26.202Z,21.90
2019-03-29T18:25:56.364Z,20.40
2019-03-29T18:28:26.080Z,23.67
2019-03-29T18:30:55.304Z,26.23
2019-03-29T18:33:25.064Z,24.00
2019-03-29T18:35:54.767Z,21.73
2019-03-29T18:38:24.501Z,19.40
2019-03-29T18:40:54.330Z,15.53
2019-03-29T18:43:25.086Z,16.10
2019-03-29T18:45:56.354Z,13.80
2019-03-29T18:48:25.675Z,13.77
2019-03-29T18:50:54.934Z,17.43
2019-03-29T18:53:25.712Z,14.30
2019-03-29T18:55:55.836Z,13.73
2019-03-29T18:58:25.665Z,15.00
2019-03-29T19:00:55.130Z,14.87
2019-03-29T19:03:24.730Z,14.83
2019-03-29T19:05:54.088Z,14.57
2019-03-29T19:08:24.508Z,14.93
2019-03-29T19:10:54.485Z,15.03
2019-03-29T19:13:24.067Z,17.10
2019-03-29T19:15:53.275Z,18.27
2019-03-29T19:18:23.082Z,15.70
2019-03-29T19:20:53.542Z,14.90
2019-03-29T19:23:23.346Z,17.60
2019-03-29T19:25:52.992Z,19.40
2019-03-29T19:28:22.720Z,25.00
2019-03-29T19:30:54.792Z,31.20
2019-03-29T19:33:24.313Z,29.47
2019-03-29T19:35:53.720Z,23.10
2019-03-29T19:38:23.290Z,19.20
2019-03-29T19:40:53.305Z,16.37
2019-03-29T19:43:22.694Z,17.20
2019-03-29T19:45:51.924Z,14.87
2019-03-29T19:48:21.136Z,14.90
2019-03-29T19:50:50.397Z,14.93
2019-03-29T19:53:20.352Z,13.27
2019-03-29T19:55:49.981Z,15.53
2019-03-29T19:58:19.913Z,14.00
2019-03-29T20:00:51.204Z,13.50
2019-03-29T20:03:20.804Z,14.57
2019-03-29T20:05:52.126Z,14.97
2019-03-29T20:08:22.013Z,13.60
2019-03-29T20:10:52.823Z,14.10
2019-03-29T20:13:22.082Z,14.20
2019-03-29T20:15:51.929Z,13.80
2019-03-29T20:18:22.991Z,12.43
2019-03-29T20:20:53.205Z,12.10
2019-03-29T20:23:23.093Z,13.40
2019-03-29T20:25:52.773Z,12.90
2019-03-29T20:28:24.490Z,14.00
2019-03-29T20:30:56.667Z,13.03
2019-03-29T20:33:26.268Z,14.60
2019-03-29T20:35:56.015Z,18.63
2019-03-29T20:38:25.585Z,17.03
2019-03-29T20:40:58.463Z,16.60
2019-03-29T20:43:29.524Z,17.97
2019-03-29T20:45:59.156Z,18.83
2019-03-29T20:48:30.292Z,18.13
2019-03-29T20:51:06.710Z,18.27
2019-03-29T20:53:35.939Z,16.23
2019-03-29T20:56:06.687Z,15.27
2019-03-29T20:58:36.338Z,19.03
2019-03-29T21:01:05.746Z,15.27
2019-03-29T21:03:35.321Z,15.40
2019-03-29T21:06:04.887Z,16.10
2019-03-29T21:08:34.235Z,15.70
2019-03-29T21:11:06.219Z,14.17
2019-03-29T21:13:35.584Z,16.27
2019-03-29T21:16:04.845Z,15.43
2019-03-29T21:18:35.928Z,18.87
2019-03-29T21:21:06.748Z,17.03
2019-03-29T21:23:36.820Z,16.47
2019-03-29T21:26:06.341Z,15.83
2019-03-29T21:28:35.826Z,15.83
2019-03-29T21:31:13.276Z,16.70
2019-03-29T21:33:43.104Z,14.63
2019-03-29T21:36:18.010Z,15.03
2019-03-29T21:38:47.120Z,16.20
2019-03-29T21:41:16.475Z,18.30
2019-03-29T21:43:46.289Z,15.10
2019-03-29T21:46:15.618Z,19.43
2019-03-29T21:48:45.121Z,15.53
2019-03-29T21:51:16.201Z,15.20
2019-03-29T21:53:47.427Z,14.17
2019-03-29T21:56:17.253Z,15.10
2019-03-29T21:58:48.322Z,15.17
2019-03-29T22:01:17.966Z,15.50
2019-03-29T22:03:48.259Z,15.70
2019-03-29T22:06:17.633Z,14.70
2019-03-29T22:08:46.933Z,15.23
2019-03-29T22:11:22.219Z,15.27
2019-03-29T22:13:51.997Z,15.43
2019-03-29T22:16:21.779Z,14.50
2019-03-29T22:18:51.701Z,15.20
2019-03-29T22:21:30.408Z,14.83
2019-03-29T22:24:01.634Z,15.60
2019-03-29T22:26:31.662Z,15.50
2019-03-29T22:29:01.310Z,13.73
2019-03-29T22:31:31.662Z,17.10
2019-03-29T22:34:00.935Z,17.97
2019-03-29T22:36:30.272Z,17.70
2019-03-29T22:38:59.687Z,20.07
2019-03-29T22:41:29.235Z,16.17
2019-03-29T22:43:58.562Z,16.00
2019-03-29T22:46:27.827Z,16.93
2019-03-29T22:48:57.018Z,17.63
2019-03-29T22:51:35.996Z,16.40
2019-03-29T22:54:06.120Z,18.10
2019-03-29T22:56:35.969Z,17.50
2019-03-29T22:59:09.343Z,18.93
2019-03-29T23:01:46.938Z,16.80
2019-03-29T23:04:16.327Z,16.97
2019-03-29T23:06:46.250Z,18.50
2019-03-29T23:09:15.688Z,16.30
2019-03-29T23:11:51.599Z,18.00
2019-03-29T23:14:21.535Z,16.83
2019-03-29T23:16:50.867Z,16.40
2019-03-29T23:19:20.517Z,18.00
2019-03-29T23:21:50.489Z,19.50
2019-03-29T23:24:20.148Z,16.30
2019-03-29T23:26:49.890Z,14.97
2019-03-29T23:29:20.177Z,15.40
2019-03-29T23:31:50.447Z,19.00
2019-03-29T23:34:19.850Z,14.00
2019-03-29T23:36:50.884Z,15.10
2019-03-29T23:39:20.737Z,14.37
2019-03-29T23:41:49.971Z,16.43
2019-03-29T23:44:19.728Z,16.83
2019-03-29T23:46:49.153Z,14.90
2019-03-29T23:49:21.234Z,16.03
2019-03-29T23:51:50.212Z,13.70
2019-03-29T23:54:19.462Z,17.13
2019-03-29T23:56:49.012Z,14.63
2019-03-29T23:59:18.668Z,15.13
